createdAt,value
2018-10-19T00:00:24.049Z,102409.37
2018-10-19T00:02:52.814Z,102406.73
2018-10-19T00:05:21.455Z,102406.16
2018-10-19T00:07:50.108Z,102412.45
2018-10-19T00:10:18.728Z,102403.73
2018-10-19T00:12:47.396Z,102402.38
2018-10-19T00:15:16.019Z,102405.56
2018-10-19T00:17:44.566Z,102405.28
2018-10-19T00:20:13.162Z,102401.20
2018-10-19T00:22:41.758Z,102404.59
2018-10-19T00:25:10.366Z,102401.30
2018-10-19T00:27:38.969Z,102403.90
2018-10-19T00:30:08.790Z,102407.05
2018-10-19T00:32:37.427Z,102408.23
2018-10-19T00:35:07.508Z,102404.16
2018-10-19T00:37:36.106Z,102407.39
2018-10-19T00:40:04.715Z,102404.62
2018-10-19T00:42:33.339Z,102402.13
2018-10-19T00:45:01.950Z,102405.31
2018-10-19T00:47:31.161Z,102400.54
2018-10-19T00:49:59.748Z,102398.75
2018-10-19T00:52:28.413Z,102405.52
2018-10-19T00:54:56.993Z,102409.47
2018-10-19T00:57:25.595Z,102403.92
2018-10-19T00:59:54.246Z,102411.30
2018-10-19T01:02:22.878Z,102397.85
2018-10-19T01:04:51.461Z,102402.54
2018-10-19T01:07:20.073Z,102405.39
2018-10-19T01:09:48.662Z,102399.07
2018-10-19T01:12:17.253Z,102394.75
2018-10-19T01:14:45.831Z,102393.94
2018-10-19T01:17:14.490Z,102395.40
2018-10-19T01:19:43.061Z,102396.00
2018-10-19T01:22:11.677Z,102391.11
2018-10-19T01:24:40.266Z,102402.27
2018-10-19T01:27:08.902Z,102393.27
2018-10-19T01:29:37.489Z,102395.13
2018-10-19T01:32:06.119Z,102390.06
2018-10-19T01:34:34.719Z,102392.95
2018-10-19T01:37:04.750Z,102397.67
2018-10-19T01:39:33.381Z,102392.60
2018-10-19T01:42:01.988Z,102392.41
2018-10-19T01:44:31.981Z,102394.12
2018-10-19T01:47:00.650Z,102396.81
2018-10-19T01:49:29.226Z,102392.41
2018-10-19T01:51:57.824Z,102397.01
2018-10-19T01:54:26.430Z,102393.17
2018-10-19T01:56:55.029Z,102403.01
2018-10-19T01:59:23.656Z,102404.36
2018-10-19T02:01:52.241Z,102407.70
2018-10-19T02:04:20.906Z,102404.41
2018-10-19T02:06:49.507Z,102406.92
2018-10-19T02:09:18.199Z,102407.14
2018-10-19T02:11:46.778Z,102408.97
2018-10-19T02:14:15.392Z,102407.13
2018-10-19T02:16:44.070Z,102410.01
2018-10-19T02:19:12.699Z,102407.06
2018-10-19T02:21:41.298Z,102414.73
2018-10-19T02:24:09.906Z,102405.06
2018-10-19T02:26:38.543Z,102406.61
2018-10-19T02:29:07.252Z,102406.13
2018-10-19T02:31:35.799Z,102408.34
2018-10-19T02:34:04.421Z,102400.20
2018-10-19T02:36:33.026Z,102407.48
2018-10-19T02:39:01.751Z,102410.66
2018-10-19T02:41:30.305Z,102408.16
2018-10-19T02:43:58.987Z,102419.87
2018-10-19T02:46:27.611Z,102409.13
2018-10-19T02:48:56.217Z,102410.47
2018-10-19T02:51:24.825Z,102404.43
2018-10-19T02:53:53.396Z,102406.14
2018-10-19T02:56:22.011Z,102410.19
2018-10-19T02:58:50.638Z,102408.18
2018-10-19T03:01:19.250Z,102404.62
2018-10-19T03:03:47.898Z,102407.31
2018-10-19T03:06:16.538Z,102408.47
2018-10-19T03:08:45.113Z,102415.86
2018-10-19T03:11:13.789Z,102414.22
2018-10-19T03:13:42.461Z,102414.22
2018-10-19T03:16:11.137Z,102411.28
2018-10-19T03:18:39.805Z,102418.25
2018-10-19T03:21:08.422Z,102412.50
2018-10-19T03:23:37.033Z,102410.11
2018-10-19T03:26:07.236Z,102409.33
2018-10-19T03:28:35.792Z,102410.17
2018-10-19T03:31:05.208Z,102412.48
2018-10-19T03:33:33.733Z,102412.84
2018-10-19T03:36:02.355Z,102414.34
2018-10-19T03:38:30.975Z,102412.13
2018-10-19T03:40:59.598Z,102411.33
2018-10-19T03:43:28.196Z,102413.83
2018-10-19T03:45:56.782Z,102413.51
2018-10-19T03:48:25.403Z,102419.09
2018-10-19T03:50:54.010Z,102421.10
2018-10-19T03:53:22.655Z,102415.98
2018-10-19T03:55:51.244Z,102424.22
2018-10-19T03:58:19.868Z,102414.04
2018-10-19T04:00:48.475Z,102411.52
2018-10-19T04:03:17.228Z,102413.61
2018-10-19T04:05:45.708Z,102410.46
2018-10-19T04:08:14.326Z,102409.20
2018-10-19T04:10:42.918Z,102412.38
2018-10-19T04:13:11.542Z,102412.83
2018-10-19T04:15:40.139Z,102425.65
2018-10-19T04:18:08.767Z,102420.27
2018-10-19T04:20:37.375Z,102424.22
2018-10-19T04:23:08.455Z,102424.06
2018-10-19T04:25:38.019Z,102427.20
2018-10-19T04:28:06.806Z,102423.25
2018-10-19T04:30:36.554Z,102418.03
2018-10-19T04:33:05.650Z,102419.50
2018-10-19T04:35:34.233Z,102429.25
2018-10-19T04:38:03.321Z,102417.08
2018-10-19T04:40:31.892Z,102417.89
2018-10-19T04:43:00.589Z,102425.06
2018-10-19T04:45:29.208Z,102431.34
2018-10-19T04:47:57.804Z,102425.90
2018-10-19T04:50:26.398Z,102428.53
2018-10-19T04:52:54.993Z,102428.59
2018-10-19T04:55:23.607Z,102428.54
2018-10-19T04:57:52.195Z,102427.47
2018-10-19T05:00:21.648Z,102426.58
2018-10-19T05:02:51.179Z,102424.44
2018-10-19T05:05:19.976Z,102432.45
2018-10-19T05:07:48.506Z,102429.36
2018-10-19T05:10:17.111Z,102436.01
2018-10-19T05:12:45.732Z,102434.10
2018-10-19T05:15:14.333Z,102433.45
2018-10-19T05:17:42.914Z,102440.22
2018-10-19T05:20:12.613Z,102431.91
2018-10-19T05:22:41.171Z,102434.82
2018-10-19T05:25:11.701Z,102440.73
2018-10-19T05:27:40.294Z,102446.39
2018-10-19T05:30:11.153Z,102445.31
2018-10-19T05:32:40.456Z,102437.95
2018-10-19T05:35:09.189Z,102444.26
2018-10-19T05:37:38.768Z,102444.30
2018-10-19T05:40:08.433Z,102440.27
2018-10-19T05:42:37.187Z,102448.56
2018-10-19T05:45:08.139Z,102445.28
2018-10-19T05:47:36.783Z,102446.77
2018-10-19T05:50:06.469Z,102449.61
2018-10-19T05:52:35.152Z,102441.06
2018-10-19T05:55:03.756Z,102445.25
2018-10-19T05:57:32.395Z,102443.05
2018-10-19T06:00:01.002Z,102443.19
2018-10-19T06:02:29.990Z,102448.13
2018-10-19T06:04:58.646Z,102440.39
2018-10-19T06:07:27.272Z,102450.95
2018-10-19T06:09:55.886Z,102456.49
2018-10-19T06:12:24.503Z,102461.90
2018-10-19T06:14:53.111Z,102457.66
2018-10-19T06:17:21.737Z,102463.05
2018-10-19T06:19:50.331Z,102456.93
2018-10-19T06:22:18.943Z,102462.72
2018-10-19T06:24:47.621Z,102458.44
2018-10-19T06:27:16.247Z,102453.92
2018-10-19T06:29:44.835Z,102460.91
2018-10-19T06:32:13.742Z,102464.13
2018-10-19T06:34:42.319Z,102469.66
2018-10-19T06:37:10.943Z,102469.30
2018-10-19T06:39:39.595Z,102472.95
2018-10-19T06:42:08.303Z,102470.28
2018-10-19T06:44:36.893Z,102465.88
2018-10-19T06:47:05.898Z,102468.45
2018-10-19T06:49:34.491Z,102471.42
2018-10-19T06:52:03.133Z,102472.27
2018-10-19T06:54:31.735Z,102472.53
2018-10-19T06:57:00.370Z,102475.12
2018-10-19T06:59:29.028Z,102480.27
2018-10-19T07:01:57.616Z,102485.05
2018-10-19T07:04:26.271Z,102480.87
2018-10-19T07:06:54.879Z,102479.49
2018-10-19T07:09:23.502Z,102483.52
2018-10-19T07:11:52.111Z,102483.35
2018-10-19T07:14:20.746Z,102486.52
2018-10-19T07:16:49.352Z,102490.79
2018-10-19T07:19:17.975Z,102484.97
2018-10-19T07:21:46.581Z,102490.98
2018-10-19T07:24:15.246Z,102483.25
2018-10-19T07:26:43.845Z,102484.05
2018-10-19T07:29:12.537Z,102488.67
2018-10-19T07:31:41.126Z,102484.55
2018-10-19T07:34:09.753Z,102494.97
2018-10-19T07:36:38.369Z,102490.33
2018-10-19T07:39:08.635Z,102494.91
2018-10-19T07:41:37.346Z,102500.17
2018-10-19T07:44:06.344Z,102503.80
2018-10-19T07:46:34.974Z,102504.06
2018-10-19T07:49:03.581Z,102503.34
2018-10-19T07:51:32.215Z,102499.67
2018-10-19T07:54:00.975Z,102503.63
2018-10-19T07:56:29.580Z,102507.09
2018-10-19T07:58:58.253Z,102505.65
2018-10-19T08:01:26.807Z,102506.69
2018-10-19T08:03:55.410Z,102504.42
2018-10-19T08:06:23.991Z,102513.88
2018-10-19T08:08:52.605Z,102516.52
2018-10-19T08:11:21.248Z,102512.80
2018-10-19T08:13:49.858Z,102507.56
2018-10-19T08:16:18.457Z,102515.66
2018-10-19T08:18:47.026Z,102512.48
2018-10-19T08:21:15.667Z,102520.48
2018-10-19T08:23:44.579Z,102511.77
2018-10-19T08:26:13.252Z,102510.83
2018-10-19T08:28:41.813Z,102513.38
2018-10-19T08:31:10.422Z,102519.99
2018-10-19T08:33:39.018Z,102520.69
2018-10-19T08:36:07.646Z,102519.63
2018-10-19T08:38:36.251Z,102517.81
2018-10-19T08:41:04.977Z,102517.34
2018-10-19T08:43:33.529Z,102524.58
2018-10-19T08:46:07.337Z,102520.95
2018-10-19T08:48:36.027Z,102525.45
2018-10-19T08:51:04.767Z,102524.32
2018-10-19T08:53:33.480Z,102533.36
2018-10-19T08:56:02.091Z,102520.20
2018-10-19T08:58:30.664Z,102517.59
2018-10-19T09:00:59.289Z,102514.70
2018-10-19T09:03:27.886Z,102519.55
2018-10-19T09:05:56.519Z,102516.45
2018-10-19T09:08:25.111Z,102517.95
2018-10-19T09:10:53.807Z,102506.67
2018-10-19T09:13:22.365Z,102513.36
2018-10-19T09:15:50.976Z,102513.55
2018-10-19T09:18:19.609Z,102510.30
2018-10-19T09:20:48.294Z,102510.37
2018-10-19T09:23:16.954Z,102506.67
2018-10-19T09:25:45.513Z,102501.25
2018-10-19T09:28:14.147Z,102504.79
2018-10-19T09:30:42.739Z,102510.99
2018-10-19T09:33:11.391Z,102507.61
2018-10-19T09:35:40.067Z,102502.97
2018-10-19T09:38:08.678Z,102508.63
2018-10-19T09:40:37.265Z,102502.63
2018-10-19T09:43:06.071Z,102504.66
2018-10-19T09:45:34.659Z,102499.67
2018-10-19T09:48:03.667Z,102503.11
2018-10-19T09:50:32.261Z,102500.75
2018-10-19T09:53:00.903Z,102502.63
2018-10-19T09:55:29.531Z,102509.44
2018-10-19T09:57:58.159Z,102501.36
2018-10-19T10:00:32.078Z,102500.99
2018-10-19T10:03:00.770Z,102501.98
2018-10-19T10:05:29.400Z,102497.02
2018-10-19T10:07:58.147Z,102498.95
2018-10-19T10:10:26.711Z,102494.72
2018-10-19T10:12:55.345Z,102494.42
2018-10-19T10:15:24.033Z,102491.34
2018-10-19T10:17:52.598Z,102489.45
2018-10-19T10:20:21.203Z,102484.97
2018-10-19T10:22:49.831Z,102489.18
2018-10-19T10:25:18.443Z,102488.72
2018-10-19T10:27:47.078Z,102488.48
2018-10-19T10:30:15.676Z,102488.20
2018-10-19T10:32:44.304Z,102483.70
2018-10-19T10:35:12.898Z,102473.48
2018-10-19T10:37:41.518Z,102475.63
2018-10-19T10:40:10.186Z,102489.33
2018-10-19T10:42:39.127Z,102476.52
2018-10-19T10:45:08.252Z,102479.19
2018-10-19T10:47:36.832Z,102491.50
2018-10-19T10:50:05.995Z,102488.09
2018-10-19T10:52:34.583Z,102492.88
2018-10-19T10:55:03.342Z,102488.39
2018-10-19T10:57:31.889Z,102492.47
2018-10-19T11:00:00.493Z,102484.39
2018-10-19T11:02:29.425Z,102481.35
2018-10-19T11:04:58.063Z,102481.74
2018-10-19T11:07:26.797Z,102477.14
2018-10-19T11:09:55.328Z,102472.56
2018-10-19T11:12:23.998Z,102466.61
2018-10-19T11:14:53.511Z,102466.67
2018-10-19T11:17:22.066Z,102462.38
2018-10-19T11:19:50.653Z,102467.27
2018-10-19T11:22:19.222Z,102458.75
2018-10-19T11:24:47.836Z,102465.02
2018-10-19T11:27:16.407Z,102462.34
2018-10-19T11:29:45.008Z,102451.70
2018-10-19T11:32:13.583Z,102450.77
2018-10-19T11:34:42.153Z,102447.77
2018-10-19T11:37:10.758Z,102445.61
2018-10-19T11:39:49.328Z,102433.72
2018-10-19T11:42:17.932Z,102440.22
2018-10-19T11:44:46.531Z,102436.38
2018-10-19T11:47:15.152Z,102432.36
2018-10-19T11:49:43.741Z,102430.25
2018-10-19T11:52:12.392Z,102434.71
2018-10-19T11:54:41.103Z,102434.82
2018-10-19T11:57:09.874Z,102432.64
2018-10-19T11:59:38.342Z,102418.80
2018-10-19T12:02:07.871Z,102423.63
2018-10-19T12:04:36.477Z,102425.55
2018-10-19T12:07:05.519Z,102429.89
2018-10-19T12:09:34.049Z,102425.22
2018-10-19T12:12:02.696Z,102424.91
2018-10-19T12:14:31.293Z,102415.57
2018-10-19T12:17:00.071Z,102417.60
2018-10-19T12:19:28.564Z,102417.86
2018-10-19T12:21:57.186Z,102416.11
2018-10-19T12:24:25.766Z,102411.38
2018-10-19T12:26:54.391Z,102408.27
2018-10-19T12:29:22.992Z,102410.19
2018-10-19T12:31:51.627Z,102409.23
2018-10-19T12:34:20.239Z,102407.56
2018-10-19T12:36:48.855Z,102406.42
2018-10-19T12:39:17.526Z,102406.19
2018-10-19T12:41:46.098Z,102406.59
2018-10-19T12:44:14.733Z,102402.55
2018-10-19T12:46:54.509Z,102406.52
2018-10-19T12:49:24.183Z,102406.81
2018-10-19T12:51:52.803Z,102402.02
2018-10-19T12:54:21.456Z,102397.42
2018-10-19T12:56:50.043Z,102394.19
2018-10-19T12:59:18.658Z,102390.94
2018-10-19T13:01:47.293Z,102390.28
2018-10-19T13:04:15.903Z,102386.02
2018-10-19T13:06:44.502Z,102384.41
2018-10-19T13:09:13.971Z,102386.66
2018-10-19T13:11:42.635Z,102383.26
2018-10-19T13:14:11.514Z,102384.11
2018-10-19T13:16:40.178Z,102371.52
2018-10-19T13:19:08.845Z,102369.77
2018-10-19T13:21:37.400Z,102363.67
2018-10-19T13:24:06.297Z,102359.55
2018-10-19T13:26:34.949Z,102354.91
2018-10-19T13:29:03.568Z,102363.72
2018-10-19T13:31:32.150Z,102361.30
2018-10-19T13:34:00.797Z,102361.62
2018-10-19T13:36:29.381Z,102354.67
2018-10-19T13:38:58.089Z,102352.78
2018-10-19T13:41:26.651Z,102348.09
2018-10-19T13:43:55.262Z,102347.13
2018-10-19T13:46:23.951Z,102349.92
2018-10-19T13:48:52.550Z,102346.50
2018-10-19T13:51:21.143Z,102348.92
2018-10-19T13:53:49.734Z,102348.92
2018-10-19T13:56:18.311Z,102345.50
2018-10-19T13:58:46.900Z,102341.66
2018-10-19T14:01:15.481Z,102343.08
2018-10-19T14:03:44.091Z,102346.26
2018-10-19T14:06:12.680Z,102347.47
2018-10-19T14:08:41.298Z,102341.30
2018-10-19T14:11:09.997Z,102339.80
2018-10-19T14:13:38.872Z,102336.53
2018-10-19T14:16:07.442Z,102333.06
2018-10-19T14:18:36.037Z,102334.55
2018-10-19T14:21:04.666Z,102332.07
2018-10-19T14:23:33.273Z,102336.41
2018-10-19T14:26:01.867Z,102333.02
2018-10-19T14:28:30.458Z,102333.67
2018-10-19T14:30:59.027Z,102334.33
2018-10-19T14:33:27.843Z,102329.69
2018-10-19T14:35:56.367Z,102335.17
2018-10-19T14:38:24.970Z,102327.98
2018-10-19T14:40:53.597Z,102328.55
2018-10-19T14:43:22.199Z,102326.88
2018-10-19T14:45:50.821Z,102322.63
2018-10-19T14:48:19.411Z,102327.95
2018-10-19T14:50:48.027Z,102319.09
2018-10-19T14:53:16.671Z,102316.58
2018-10-19T14:55:45.267Z,102327.41
2018-10-19T14:58:13.849Z,102322.11
2018-10-19T15:00:42.472Z,102325.39
2018-10-19T15:03:11.115Z,102317.03
2018-10-19T15:05:39.718Z,102315.02
2018-10-19T15:08:08.295Z,102311.80
2018-10-19T15:10:37.052Z,102319.69
2018-10-19T15:13:05.666Z,102312.36
2018-10-19T15:15:34.283Z,102314.44
2018-10-19T15:18:02.925Z,102317.56
2018-10-19T15:20:31.512Z,102313.66
2018-10-19T15:23:00.106Z,102311.27
2018-10-19T15:25:28.710Z,102317.94
2018-10-19T15:27:57.312Z,102328.91
2018-10-19T15:30:25.937Z,102331.13
2018-10-19T15:32:54.525Z,102331.81
2018-10-19T15:35:23.185Z,102330.08
2018-10-19T15:37:51.806Z,102329.74
2018-10-19T15:40:20.417Z,102332.28
2018-10-19T15:42:49.012Z,102333.27
2018-10-19T15:45:17.640Z,102335.43
2018-10-19T15:47:46.266Z,102337.62
2018-10-19T15:50:14.878Z,102338.25
2018-10-19T15:52:43.471Z,102341.63
2018-10-19T15:55:12.110Z,102341.58
2018-10-19T15:57:40.706Z,102336.51
2018-10-19T16:00:10.445Z,102345.24
2018-10-19T16:02:39.027Z,102347.47
2018-10-19T16:05:07.711Z,102347.69
2018-10-19T16:07:36.323Z,102340.41
2018-10-19T16:10:05.653Z,102346.75
2018-10-19T16:12:34.272Z,102348.31
2018-10-19T16:15:02.955Z,102358.30
2018-10-19T16:17:31.585Z,102355.03
2018-10-19T16:20:00.203Z,102364.38
2018-10-19T16:22:28.815Z,102369.41
2018-10-19T16:24:57.422Z,102372.06
2018-10-19T16:27:26.082Z,102384.82
2018-10-19T16:29:54.730Z,102379.04
2018-10-19T16:32:23.323Z,102382.45
2018-10-19T16:34:51.951Z,102380.18
2018-10-19T16:37:20.557Z,102382.63
2018-10-19T16:39:49.179Z,102391.97
2018-10-19T16:42:18.007Z,102405.15
2018-10-19T16:44:46.446Z,102405.72
2018-10-19T16:47:15.045Z,102402.05
2018-10-19T16:49:43.629Z,102405.15
2018-10-19T16:52:12.260Z,102409.29
2018-10-19T16:54:40.865Z,102409.01
2018-10-19T16:57:09.558Z,102409.41
2018-10-19T16:59:38.109Z,102399.17
2018-10-19T17:02:06.747Z,102396.73
2018-10-19T17:04:35.362Z,102396.44
2018-10-19T17:07:04.002Z,102401.75
2018-10-19T17:09:32.593Z,102396.95
2018-10-19T17:12:01.239Z,102403.40
2018-10-19T17:14:29.860Z,102403.34
2018-10-19T17:16:58.473Z,102409.76
2018-10-19T17:19:27.135Z,102411.84
2018-10-19T17:21:55.736Z,102410.39
2018-10-19T17:24:24.377Z,102416.39
2018-10-19T17:26:53.179Z,102416.77
2018-10-19T17:29:21.806Z,102412.81
2018-10-19T17:31:50.431Z,102413.55
2018-10-19T17:34:19.107Z,102414.62
2018-10-19T17:36:47.725Z,102420.45
2018-10-19T17:39:16.394Z,102421.80
2018-10-19T17:41:45.044Z,102416.97
2018-10-19T17:44:13.652Z,102416.30
2018-10-19T17:46:42.291Z,102415.66
2018-10-19T17:49:10.904Z,102426.55
2018-10-19T17:51:39.515Z,102418.60
2018-10-19T17:54:08.166Z,102421.64
2018-10-19T17:56:36.895Z,102426.16
2018-10-19T17:59:05.660Z,102427.98
2018-10-19T18:01:34.313Z,102432.45
2018-10-19T18:04:03.050Z,102436.59
2018-10-19T18:06:31.733Z,102444.34
2018-10-19T18:09:00.863Z,102438.88
2018-10-19T18:11:29.545Z,102434.28
2018-10-19T18:13:58.142Z,102436.18
2018-10-19T18:16:26.758Z,102438.45
2018-10-19T18:18:55.340Z,102447.91
2018-10-19T18:21:24.005Z,102448.84
2018-10-19T18:23:52.595Z,102459.11
2018-10-19T18:26:21.215Z,102456.41
2018-10-19T18:28:49.822Z,102458.10
2018-10-19T18:31:18.446Z,102460.86
2018-10-19T18:33:47.056Z,102467.14
2018-10-19T18:36:15.675Z,102466.94
2018-10-19T18:38:44.305Z,102473.83
2018-10-19T18:41:12.936Z,102483.97
2018-10-19T18:43:41.548Z,102474.48
2018-10-19T18:46:10.228Z,102473.77
2018-10-19T18:48:38.851Z,102471.47
2018-10-19T18:51:07.543Z,102472.07
2018-10-19T18:53:36.217Z,102476.23
2018-10-19T18:56:05.043Z,102485.47
2018-10-19T18:58:33.816Z,102483.71
2018-10-19T19:01:02.435Z,102479.25
2018-10-19T19:03:31.056Z,102483.05
2018-10-19T19:05:59.830Z,102482.10
2018-10-19T19:08:30.090Z,102482.71
2018-10-19T19:10:58.759Z,102487.53
2018-10-19T19:13:29.772Z,102496.41
2018-10-19T19:15:58.731Z,102489.69
2018-10-19T19:18:27.560Z,102488.88
2018-10-19T19:20:56.193Z,102494.47
2018-10-19T19:23:24.803Z,102499.91
2018-10-19T19:25:58.637Z,102497.83
2018-10-19T19:28:27.273Z,102505.09
2018-10-19T19:30:55.900Z,102505.20
2018-10-19T19:33:29.622Z,102503.74
2018-10-19T19:35:58.206Z,102498.44
2018-10-19T19:38:26.834Z,102506.06
2018-10-19T19:41:00.636Z,102501.39
2018-10-19T19:43:29.514Z,102496.98
2018-10-19T19:45:58.110Z,102499.83
2018-10-19T19:48:31.827Z,102498.34
2018-10-19T19:51:00.432Z,102497.09
2018-10-19T19:53:29.029Z,102491.21
2018-10-19T19:55:57.684Z,102494.03
2018-10-19T19:58:26.263Z,102498.71
2018-10-19T20:00:54.860Z,102499.94
2018-10-19T20:03:23.703Z,102485.89
2018-10-19T20:05:52.304Z,102501.13
2018-10-19T20:08:20.914Z,102496.68
2018-10-19T20:10:49.538Z,102505.64
2018-10-19T20:13:18.180Z,102507.16
2018-10-19T20:15:46.755Z,102501.02
2018-10-19T20:18:15.380Z,102499.42
2018-10-19T20:20:44.004Z,102498.33
2018-10-19T20:23:12.648Z,102491.42
2018-10-19T20:25:41.262Z,102492.75
2018-10-19T20:28:09.891Z,102493.61
2018-10-19T20:30:38.468Z,102491.64
2018-10-19T20:33:07.076Z,102493.82
2018-10-19T20:35:35.655Z,102484.73
2018-10-19T20:38:04.368Z,102482.62
2018-10-19T20:40:32.978Z,102484.23
2018-10-19T20:43:01.622Z,102483.61
2018-10-19T20:45:30.229Z,102482.85
2018-10-19T20:47:58.879Z,102493.00
2018-10-19T20:50:27.484Z,102494.30
2018-10-19T20:52:56.726Z,102484.58
2018-10-19T20:55:25.359Z,102484.80
2018-10-19T20:57:53.979Z,102489.08
2018-10-19T21:00:22.647Z,102485.42
2018-10-19T21:02:51.268Z,102486.65
2018-10-19T21:05:19.898Z,102489.12
2018-10-19T21:07:48.495Z,102490.28
2018-10-19T21:10:17.132Z,102496.34
2018-10-19T21:12:45.721Z,102493.09
2018-10-19T21:15:14.849Z,102488.17
2018-10-19T21:17:43.707Z,102482.38
2018-10-19T21:20:13.115Z,102480.09
2018-10-19T21:22:41.742Z,102482.70
2018-10-19T21:25:11.683Z,102475.69
2018-10-19T21:27:40.301Z,102478.97
2018-10-19T21:30:10.327Z,102474.36
2018-10-19T21:32:38.971Z,102469.30
2018-10-19T21:35:07.659Z,102474.30
2018-10-19T21:37:36.314Z,102472.85
2018-10-19T21:40:05.071Z,102473.66
2018-10-19T21:42:33.715Z,102476.98
2018-10-19T21:45:02.336Z,102490.14
2018-10-19T21:47:30.920Z,102488.94
2018-10-19T21:49:59.524Z,102501.69
2018-10-19T21:52:28.153Z,102509.77
2018-10-19T21:54:56.791Z,102515.73
2018-10-19T21:57:25.379Z,102516.11
2018-10-19T21:59:54.006Z,102508.63
2018-10-19T22:02:22.622Z,102514.02
2018-10-19T22:04:51.242Z,102509.21
2018-10-19T22:07:19.856Z,102511.05
2018-10-19T22:09:48.455Z,102514.39
2018-10-19T22:12:17.078Z,102512.89
2018-10-19T22:14:45.705Z,102516.61
2018-10-19T22:17:14.375Z,102521.72
2018-10-19T22:19:42.958Z,102515.97
2018-10-19T22:22:11.554Z,102521.83
2018-10-19T22:24:40.194Z,102524.26
2018-10-19T22:27:08.797Z,102525.70
2018-10-19T22:29:37.419Z,102527.27
2018-10-19T22:32:06.112Z,102534.75
2018-10-19T22:34:34.745Z,102531.83
2018-10-19T22:37:03.401Z,102527.14
2018-10-19T22:39:31.994Z,102526.29
2018-10-19T22:42:00.607Z,102531.56
2018-10-19T22:44:29.288Z,102537.81
2018-10-19T22:46:58.156Z,102535.60
2018-10-19T22:49:26.763Z,102538.09
2018-10-19T22:51:55.375Z,102546.33
2018-10-19T22:54:24.011Z,102533.25
2018-10-19T22:56:52.631Z,102529.66
2018-10-19T22:59:21.301Z,102529.20
2018-10-19T23:01:49.895Z,102523.87
2018-10-19T23:04:18.554Z,102524.23
2018-10-19T23:06:47.490Z,102523.56
2018-10-19T23:09:16.070Z,102521.28
2018-10-19T23:11:44.749Z,102521.62
2018-10-19T23:14:13.344Z,102527.59
2018-10-19T23:16:41.949Z,102526.16
2018-10-19T23:19:10.606Z,102524.80
2018-10-19T23:21:39.224Z,102525.54
2018-10-19T23:24:08.399Z,102525.94
2018-10-19T23:26:37.026Z,102534.19
2018-10-19T23:29:06.040Z,102529.38
2018-10-19T23:31:34.798Z,102525.05
2018-10-19T23:34:03.249Z,102519.20
2018-10-19T23:36:31.854Z,102518.16
2018-10-19T23:39:00.482Z,102517.42
2018-10-19T23:41:29.190Z,102523.09
2018-10-19T23:43:57.786Z,102536.83
2018-10-19T23:46:26.368Z,102536.17
2018-10-19T23:48:54.987Z,102536.17
2018-10-19T23:51:23.569Z,102534.83
2018-10-19T23:53:52.176Z,102528.25
2018-10-19T23:56:20.757Z,102537.91
2018-10-19T23:58:49.411Z,102540.92
